createdAt,value
2023-02-26T00:00:40.085Z,986.73
2023-02-26T00:01:40.255Z,986.78
2023-02-26T00:02:40.018Z,986.79
2023-02-26T00:03:40.023Z,986.80
2023-02-26T00:04:40.009Z,986.76
2023-02-26T00:05:39.985Z,986.80
2023-02-26T00:06:39.986Z,986.83
2023-02-26T00:07:39.941Z,986.86
2023-02-26T00:08:40.062Z,986.86
2023-02-26T00:09:39.949Z,986.85
2023-02-26T00:10:39.906Z,986.86
2023-02-26T00:11:39.905Z,986.83
2023-02-26T00:12:39.897Z,986.84
2023-02-26T00:13:39.891Z,986.86
2023-02-26T00:14:39.834Z,986.88
2023-02-26T00:15:39.815Z,986.91
2023-02-26T00:16:39.821Z,986.95
2023-02-26T00:17:39.883Z,986.95
2023-02-26T00:18:39.770Z,986.96
2023-02-26T00:19:39.760Z,986.98
2023-02-26T00:20:39.738Z,987.01
2023-02-26T00:21:39.722Z,986.99
2023-02-26T00:22:39.713Z,987.05
2023-02-26T00:23:39.713Z,987.04
2023-02-26T00:24:39.676Z,987.03
2023-02-26T00:25:39.649Z,987.07
2023-02-26T00:26:39.628Z,986.97
2023-02-26T00:27:39.602Z,987.06
2023-02-26T00:28:39.615Z,987.04
2023-02-26T00:29:39.645Z,987.03
2023-02-26T00:30:39.668Z,987.08
2023-02-26T00:31:39.654Z,987.10
2023-02-26T00:32:39.664Z,987.11
2023-02-26T00:33:39.543Z,987.10
2023-02-26T00:34:39.544Z,987.09
2023-02-26T00:35:39.514Z,987.11
2023-02-26T00:36:39.493Z,987.16
2023-02-26T00:37:39.530Z,987.11
2023-02-26T00:38:39.586Z,987.14
2023-02-26T00:39:39.467Z,987.12
2023-02-26T00:40:39.428Z,987.14
2023-02-26T00:41:39.474Z,987.14
2023-02-26T00:42:39.379Z,987.14
2023-02-26T00:43:39.386Z,987.18
2023-02-26T00:44:39.359Z,987.19
2023-02-26T00:45:39.377Z,987.16
2023-02-26T00:46:39.354Z,987.15
2023-02-26T00:47:39.326Z,987.17
2023-02-26T00:48:39.302Z,987.21
2023-02-26T00:49:39.284Z,987.19
2023-02-26T00:50:39.255Z,987.20
2023-02-26T00:51:39.259Z,987.23
2023-02-26T00:52:39.257Z,987.20
2023-02-26T00:53:39.337Z,987.21
2023-02-26T00:54:39.197Z,987.23
2023-02-26T00:55:39.184Z,987.22
2023-02-26T00:56:39.166Z,987.25
2023-02-26T00:57:39.130Z,987.23
2023-02-26T00:58:39.255Z,987.21
2023-02-26T00:59:39.130Z,987.30
2023-02-26T01:00:39.133Z,987.29
2023-02-26T01:01:39.221Z,987.28
2023-02-26T01:02:39.069Z,987.29
2023-02-26T01:03:39.102Z,987.30
2023-02-26T01:04:39.039Z,987.35
2023-02-26T01:05:39.079Z,987.32
2023-02-26T01:06:38.997Z,987.36
2023-02-26T01:07:38.999Z,987.31
2023-02-26T01:08:39.009Z,987.34
2023-02-26T01:09:38.956Z,987.37
2023-02-26T01:10:38.969Z,987.31
2023-02-26T01:11:38.928Z,987.38
2023-02-26T01:12:38.916Z,987.36
2023-02-26T01:13:38.888Z,987.35
2023-02-26T01:14:38.916Z,987.36
2023-02-26T01:15:38.919Z,987.34
2023-02-26T01:16:38.835Z,987.34
2023-02-26T01:17:38.847Z,987.29
2023-02-26T01:18:38.845Z,987.31
2023-02-26T01:19:38.858Z,987.32
2023-02-26T01:20:38.786Z,987.31
2023-02-26T01:21:38.796Z,987.30
2023-02-26T01:22:38.753Z,987.30
2023-02-26T01:23:38.750Z,987.32
2023-02-26T01:24:38.757Z,987.35
2023-02-26T01:25:38.762Z,987.34
2023-02-26T01:26:38.765Z,987.36
2023-02-26T01:27:38.753Z,987.37
2023-02-26T01:28:38.696Z,987.33
2023-02-26T01:29:38.651Z,987.34
2023-02-26T01:30:38.774Z,987.34
2023-02-26T01:31:38.762Z,987.32
2023-02-26T01:32:38.714Z,987.32
2023-02-26T01:33:38.611Z,987.41
2023-02-26T01:34:38.576Z,987.34
2023-02-26T01:35:38.615Z,987.35
2023-02-26T01:36:38.529Z,987.36
2023-02-26T01:37:38.537Z,987.35
2023-02-26T01:38:38.529Z,987.35
2023-02-26T01:39:38.503Z,987.36
2023-02-26T01:40:38.500Z,987.37
2023-02-26T01:41:38.428Z,987.38
2023-02-26T01:42:38.437Z,987.34
2023-02-26T01:43:38.439Z,987.36
2023-02-26T01:44:38.446Z,987.35
2023-02-26T01:45:38.367Z,987.32
2023-02-26T01:46:38.455Z,987.40
2023-02-26T01:47:38.382Z,987.34
2023-02-26T01:48:38.408Z,987.34
2023-02-26T01:49:38.439Z,987.34
2023-02-26T01:50:38.338Z,987.37
2023-02-26T01:51:38.329Z,987.35
2023-02-26T01:52:38.532Z,987.40
2023-02-26T01:53:38.333Z,987.38
2023-02-26T01:54:38.315Z,987.41
2023-02-26T01:55:38.299Z,987.41
2023-02-26T01:56:38.235Z,987.45
2023-02-26T01:57:38.207Z,987.46
2023-02-26T01:58:38.199Z,987.47
2023-02-26T01:59:38.174Z,987.46
2023-02-26T02:00:38.179Z,987.47
2023-02-26T02:01:38.130Z,987.50
2023-02-26T02:02:38.229Z,987.49
2023-02-26T02:03:38.162Z,987.49
2023-02-26T02:04:38.107Z,987.52
2023-02-26T02:05:38.105Z,987.54
2023-02-26T02:06:38.062Z,987.53
2023-02-26T02:07:38.071Z,987.52
2023-02-26T02:08:38.046Z,987.55
2023-02-26T02:09:38.019Z,987.60
2023-02-26T02:10:38.007Z,987.55
2023-02-26T02:11:37.994Z,987.53
2023-02-26T02:12:38.006Z,987.56
2023-02-26T02:13:37.934Z,987.58
2023-02-26T02:14:37.935Z,987.58
2023-02-26T02:15:37.932Z,987.57
2023-02-26T02:16:37.915Z,987.59
2023-02-26T02:17:37.887Z,987.59
2023-02-26T02:18:37.908Z,987.64
2023-02-26T02:19:37.873Z,987.63
2023-02-26T02:20:37.844Z,987.63
2023-02-26T02:21:37.866Z,987.63
2023-02-26T02:22:37.806Z,987.62
2023-02-26T02:23:37.780Z,987.63
2023-02-26T02:24:37.750Z,987.62
2023-02-26T02:25:37.732Z,987.69
2023-02-26T02:26:37.704Z,987.66
2023-02-26T02:27:37.695Z,987.68
2023-02-26T02:28:37.706Z,987.72
2023-02-26T02:29:37.709Z,987.65
2023-02-26T02:30:37.712Z,987.72
2023-02-26T02:31:37.806Z,987.74
2023-02-26T02:32:37.842Z,987.71
2023-02-26T02:33:37.633Z,987.73
2023-02-26T02:34:37.679Z,987.76
2023-02-26T02:35:37.585Z,987.77
2023-02-26T02:36:37.618Z,987.77
2023-02-26T02:37:37.585Z,987.79
2023-02-26T02:38:37.539Z,987.77
2023-02-26T02:39:37.562Z,987.79
2023-02-26T02:40:37.515Z,987.80
2023-02-26T02:41:37.518Z,987.80
2023-02-26T02:42:37.467Z,987.78
2023-02-26T02:43:37.451Z,987.82
2023-02-26T02:44:37.431Z,987.83
2023-02-26T02:45:37.541Z,987.80
2023-02-26T02:46:37.445Z,987.78
2023-02-26T02:47:37.432Z,987.86
2023-02-26T02:48:37.402Z,987.84
2023-02-26T02:49:37.387Z,987.86
2023-02-26T02:50:37.572Z,987.86
2023-02-26T02:51:37.409Z,987.84
2023-02-26T02:52:37.339Z,987.85
2023-02-26T02:53:37.293Z,987.87
2023-02-26T02:54:37.300Z,987.86
2023-02-26T02:55:37.272Z,987.92
2023-02-26T02:56:37.224Z,987.95
2023-02-26T02:57:37.233Z,987.92
2023-02-26T02:58:37.224Z,987.94
2023-02-26T02:59:37.378Z,987.96
2023-02-26T03:00:37.194Z,987.96
2023-02-26T03:01:37.172Z,987.97
2023-02-26T03:02:37.192Z,987.96
2023-02-26T03:03:37.158Z,987.99
2023-02-26T03:04:37.191Z,988.00
2023-02-26T03:05:37.088Z,987.98
2023-02-26T03:06:37.325Z,988.03
2023-02-26T03:07:37.050Z,988.05
2023-02-26T03:08:37.044Z,988.07
2023-02-26T03:09:37.090Z,988.09
2023-02-26T03:10:37.062Z,988.07
2023-02-26T03:11:37.031Z,988.14
2023-02-26T03:12:37.030Z,988.13
2023-02-26T03:13:36.965Z,988.20
2023-02-26T03:14:36.949Z,988.24
2023-02-26T03:15:36.986Z,988.21
2023-02-26T03:16:37.000Z,988.25
2023-02-26T03:17:36.966Z,988.23
2023-02-26T03:18:36.901Z,988.25
2023-02-26T03:19:36.880Z,988.26
2023-02-26T03:20:36.886Z,988.27
2023-02-26T03:21:36.850Z,988.30
2023-02-26T03:22:36.823Z,988.28
2023-02-26T03:23:36.839Z,988.26
2023-02-26T03:24:36.859Z,988.32
2023-02-26T03:25:36.818Z,988.34
2023-02-26T03:26:36.851Z,988.37
2023-02-26T03:27:36.816Z,988.36
2023-02-26T03:28:36.836Z,988.37
2023-02-26T03:29:36.708Z,988.38
2023-02-26T03:30:36.709Z,988.39
2023-02-26T03:31:36.733Z,988.44
2023-02-26T03:32:36.880Z,988.41
2023-02-26T03:33:36.707Z,988.42
2023-02-26T03:34:36.730Z,988.40
2023-02-26T03:35:36.748Z,988.45
2023-02-26T03:36:36.686Z,988.48
2023-02-26T03:37:36.634Z,988.48
2023-02-26T03:38:36.564Z,988.50
2023-02-26T03:39:36.535Z,988.55
2023-02-26T03:40:36.566Z,988.56
2023-02-26T03:41:36.594Z,988.63
2023-02-26T03:42:36.520Z,988.64
2023-02-26T03:43:36.481Z,988.62
2023-02-26T03:44:36.465Z,988.64
2023-02-26T03:45:36.568Z,988.69
2023-02-26T03:46:36.430Z,988.70
2023-02-26T03:47:36.427Z,988.71
2023-02-26T03:48:36.425Z,988.74
2023-02-26T03:49:36.408Z,988.74
2023-02-26T03:50:36.372Z,988.72
2023-02-26T03:51:36.359Z,988.74
2023-02-26T03:52:36.326Z,988.72
2023-02-26T03:53:36.311Z,988.78
2023-02-26T03:54:36.318Z,988.80
2023-02-26T03:55:36.308Z,988.78
2023-02-26T03:56:36.292Z,988.83
2023-02-26T03:57:36.290Z,988.83
2023-02-26T03:58:36.230Z,988.86
2023-02-26T03:59:36.225Z,988.86
2023-02-26T04:00:36.223Z,988.92
2023-02-26T04:01:36.265Z,988.92
2023-02-26T04:02:36.198Z,988.88
2023-02-26T04:03:36.216Z,988.88
2023-02-26T04:04:36.428Z,988.98
2023-02-26T04:05:36.168Z,988.92
2023-02-26T04:06:36.147Z,988.95
2023-02-26T04:07:36.088Z,988.97
2023-02-26T04:08:36.066Z,988.95
2023-02-26T04:09:36.069Z,989.00
2023-02-26T04:10:36.055Z,988.96
2023-02-26T04:11:36.024Z,989.05
2023-02-26T04:12:36.038Z,988.99
2023-02-26T04:13:36.048Z,988.99
2023-02-26T04:14:36.013Z,989.01
2023-02-26T04:15:36.162Z,989.06
2023-02-26T04:16:35.972Z,989.05
2023-02-26T04:17:35.933Z,989.06
2023-02-26T04:18:35.934Z,989.05
2023-02-26T04:19:35.891Z,989.09
2023-02-26T04:20:35.887Z,989.10
2023-02-26T04:21:35.865Z,989.19
2023-02-26T04:22:35.858Z,989.12
2023-02-26T04:23:35.853Z,989.22
2023-02-26T04:24:35.864Z,989.24
2023-02-26T04:25:35.828Z,989.24
2023-02-26T04:26:35.806Z,989.27
2023-02-26T04:27:35.779Z,989.26
2023-02-26T04:28:35.766Z,989.24
2023-02-26T04:29:35.764Z,989.26
2023-02-26T04:30:35.791Z,989.25
2023-02-26T04:31:35.787Z,989.30
2023-02-26T04:32:35.801Z,989.33
2023-02-26T04:33:35.722Z,989.34
2023-02-26T04:34:35.667Z,989.36
2023-02-26T04:35:35.630Z,989.37
2023-02-26T04:36:35.619Z,989.38
2023-02-26T04:37:35.625Z,989.35
2023-02-26T04:38:35.590Z,989.45
2023-02-26T04:39:35.563Z,989.41
2023-02-26T04:40:35.593Z,989.46
2023-02-26T04:41:35.561Z,989.46
2023-02-26T04:42:35.526Z,989.46
2023-02-26T04:43:35.515Z,989.50
2023-02-26T04:44:35.500Z,989.55
2023-02-26T04:45:35.511Z,989.55
2023-02-26T04:46:35.467Z,989.54
2023-02-26T04:47:35.448Z,989.54
2023-02-26T04:48:35.450Z,989.59
2023-02-26T04:49:35.407Z,989.63
2023-02-26T04:50:35.395Z,989.63
2023-02-26T04:51:35.371Z,989.67
2023-02-26T04:52:35.373Z,989.69
2023-02-26T04:53:35.328Z,989.68
2023-02-26T04:54:35.373Z,989.67
2023-02-26T04:55:35.334Z,989.68
2023-02-26T04:56:35.302Z,989.70
2023-02-26T04:57:35.296Z,989.70
2023-02-26T04:58:35.290Z,989.70
2023-02-26T04:59:35.232Z,989.79
2023-02-26T05:00:35.242Z,989.77
2023-02-26T05:01:35.295Z,989.76
2023-02-26T05:02:35.212Z,989.81
2023-02-26T05:03:35.231Z,989.84
2023-02-26T05:04:35.172Z,989.83
2023-02-26T05:05:35.136Z,989.90
2023-02-26T05:06:35.154Z,989.91
2023-02-26T05:07:35.158Z,989.96
2023-02-26T05:08:35.100Z,989.88
2023-02-26T05:09:35.073Z,989.98
2023-02-26T05:10:35.041Z,990.02
2023-02-26T05:11:35.071Z,990.00
2023-02-26T05:12:35.050Z,990.03
2023-02-26T05:13:35.029Z,990.05
2023-02-26T05:14:35.015Z,990.05
2023-02-26T05:15:34.987Z,990.11
2023-02-26T05:16:34.966Z,990.12
2023-02-26T05:17:34.990Z,990.13
2023-02-26T05:18:34.980Z,990.14
2023-02-26T05:19:34.909Z,990.17
2023-02-26T05:20:34.907Z,990.20
2023-02-26T05:21:34.917Z,990.15
2023-02-26T05:22:34.847Z,990.18
2023-02-26T05:23:34.880Z,990.19
2023-02-26T05:24:34.852Z,990.22
2023-02-26T05:25:34.870Z,990.23
2023-02-26T05:26:34.856Z,990.25
2023-02-26T05:27:34.815Z,990.25
2023-02-26T05:28:34.772Z,990.21
2023-02-26T05:29:34.776Z,990.23
2023-02-26T05:30:34.770Z,990.23
2023-02-26T05:31:34.885Z,990.25
2023-02-26T05:32:34.725Z,990.26
2023-02-26T05:33:34.726Z,990.28
2023-02-26T05:34:34.686Z,990.28
2023-02-26T05:35:34.662Z,990.28
2023-02-26T05:36:34.828Z,990.32
2023-02-26T05:37:34.621Z,990.40
2023-02-26T05:38:34.600Z,990.34
2023-02-26T05:39:34.592Z,990.32
2023-02-26T05:40:34.575Z,990.35
2023-02-26T05:41:34.742Z,990.37
2023-02-26T05:42:34.525Z,990.39
2023-02-26T05:43:34.593Z,990.40
2023-02-26T05:44:34.570Z,990.40
2023-02-26T05:45:34.555Z,990.40
2023-02-26T05:46:34.518Z,990.43
2023-02-26T05:47:34.449Z,990.45
2023-02-26T05:48:34.444Z,990.45
2023-02-26T05:49:34.443Z,990.48
2023-02-26T05:50:34.439Z,990.48
2023-02-26T05:51:34.412Z,990.47
2023-02-26T05:52:34.400Z,990.51
2023-02-26T05:53:34.366Z,990.53
2023-02-26T05:54:34.389Z,990.59
2023-02-26T05:55:34.350Z,990.59
2023-02-26T05:56:34.335Z,990.60
2023-02-26T05:57:34.314Z,990.60
2023-02-26T05:58:34.265Z,990.66
2023-02-26T05:59:34.248Z,990.64
2023-02-26T06:00:34.293Z,990.72
2023-02-26T06:01:34.309Z,990.73
2023-02-26T06:02:34.217Z,990.71
2023-02-26T06:03:34.199Z,990.72
2023-02-26T06:04:34.178Z,990.73
2023-02-26T06:05:34.208Z,990.82
2023-02-26T06:06:34.147Z,990.82
2023-02-26T06:07:34.138Z,990.80
2023-02-26T06:08:34.134Z,990.83
2023-02-26T06:09:34.114Z,990.91
2023-02-26T06:10:34.081Z,990.89
2023-02-26T06:11:34.299Z,990.94
2023-02-26T06:12:34.035Z,990.95
2023-02-26T06:13:34.040Z,990.94
2023-02-26T06:14:34.044Z,991.01
2023-02-26T06:15:34.005Z,990.99
2023-02-26T06:16:34.035Z,991.02
2023-02-26T06:17:33.963Z,991.05
2023-02-26T06:18:33.944Z,991.02
2023-02-26T06:19:33.925Z,991.06
2023-02-26T06:20:33.925Z,991.09
2023-02-26T06:21:33.955Z,991.09
2023-02-26T06:22:33.886Z,991.10
2023-02-26T06:23:33.907Z,991.15
2023-02-26T06:24:33.871Z,991.14
2023-02-26T06:25:33.871Z,991.18
2023-02-26T06:26:33.839Z,991.18
2023-02-26T06:27:33.782Z,991.24
2023-02-26T06:28:33.814Z,991.24
2023-02-26T06:29:33.796Z,991.26
2023-02-26T06:30:33.799Z,991.26
2023-02-26T06:31:33.745Z,991.27
2023-02-26T06:32:33.799Z,991.25
2023-02-26T06:33:33.717Z,991.28
2023-02-26T06:34:33.721Z,991.31
2023-02-26T06:35:33.706Z,991.37
2023-02-26T06:36:33.649Z,991.36
2023-02-26T06:37:33.713Z,991.39
2023-02-26T06:38:33.657Z,991.41
2023-02-26T06:39:33.616Z,991.39
2023-02-26T06:40:33.607Z,991.40
2023-02-26T06:41:33.611Z,991.36
2023-02-26T06:42:33.580Z,991.44
2023-02-26T06:43:33.552Z,991.45
2023-02-26T06:44:33.564Z,991.48
2023-02-26T06:45:33.566Z,991.49
2023-02-26T06:46:33.537Z,991.51
2023-02-26T06:47:33.501Z,991.54
2023-02-26T06:48:33.507Z,991.52
2023-02-26T06:49:33.497Z,991.52
2023-02-26T06:50:33.454Z,991.57
2023-02-26T06:51:33.438Z,991.57
2023-02-26T06:52:33.401Z,991.59
2023-02-26T06:53:33.463Z,991.64
2023-02-26T06:54:33.412Z,991.68
2023-02-26T06:55:33.391Z,991.66
2023-02-26T06:56:33.348Z,991.73
2023-02-26T06:57:33.333Z,991.74
2023-02-26T06:58:33.344Z,991.77
2023-02-26T06:59:33.533Z,991.81
2023-02-26T07:00:33.276Z,991.82
2023-02-26T07:01:33.298Z,991.84
2023-02-26T07:02:33.319Z,991.82
2023-02-26T07:03:33.216Z,991.87
2023-02-26T07:04:33.215Z,991.85
2023-02-26T07:05:33.194Z,991.92
2023-02-26T07:06:33.214Z,991.94
2023-02-26T07:07:33.197Z,991.91
2023-02-26T07:08:33.167Z,991.97
2023-02-26T07:09:33.169Z,991.99
2023-02-26T07:10:33.134Z,992.00
2023-02-26T07:11:33.119Z,991.99
2023-02-26T07:12:33.077Z,992.02
2023-02-26T07:13:33.079Z,992.07
2023-02-26T07:14:33.059Z,992.05
2023-02-26T07:15:33.059Z,992.11
2023-02-26T07:16:33.065Z,992.11
2023-02-26T07:17:33.012Z,992.14
2023-02-26T07:18:32.982Z,992.16
2023-02-26T07:19:32.994Z,992.16
2023-02-26T07:20:32.949Z,992.17
2023-02-26T07:21:32.929Z,992.20
2023-02-26T07:22:32.908Z,992.20
2023-02-26T07:23:32.920Z,992.22
2023-02-26T07:24:32.913Z,992.21
2023-02-26T07:25:32.940Z,992.25
2023-02-26T07:26:32.887Z,992.27
2023-02-26T07:27:32.850Z,992.33
2023-02-26T07:28:32.841Z,992.35
2023-02-26T07:29:32.824Z,992.35
2023-02-26T07:30:32.956Z,992.39
2023-02-26T07:31:33.046Z,992.37
2023-02-26T07:32:32.874Z,992.38
2023-02-26T07:33:32.739Z,992.39
2023-02-26T07:34:32.716Z,992.38
2023-02-26T07:35:32.699Z,992.42
2023-02-26T07:36:32.693Z,992.43
2023-02-26T07:37:32.679Z,992.45
2023-02-26T07:38:32.670Z,992.51
2023-02-26T07:39:32.656Z,992.53
2023-02-26T07:40:32.643Z,992.52
2023-02-26T07:41:32.634Z,992.59
2023-02-26T07:42:32.603Z,992.61
2023-02-26T07:43:32.569Z,992.63
2023-02-26T07:44:32.585Z,992.68
2023-02-26T07:45:32.576Z,992.65
2023-02-26T07:46:32.650Z,992.67
2023-02-26T07:47:32.530Z,992.70
2023-02-26T07:48:32.490Z,992.72
2023-02-26T07:49:32.617Z,992.71
2023-02-26T07:50:32.492Z,992.73
2023-02-26T07:51:32.678Z,992.74
2023-02-26T07:52:32.470Z,992.75
2023-02-26T07:53:32.429Z,992.78
2023-02-26T07:54:32.394Z,992.81
2023-02-26T07:55:32.404Z,992.81
2023-02-26T07:56:32.398Z,992.77
2023-02-26T07:57:32.385Z,992.78
2023-02-26T07:58:32.334Z,992.84
2023-02-26T07:59:32.312Z,992.85
2023-02-26T08:00:32.333Z,992.86
2023-02-26T08:01:32.333Z,992.95
2023-02-26T08:02:32.268Z,992.91
2023-02-26T08:03:32.254Z,992.91
2023-02-26T08:04:32.290Z,992.96
2023-02-26T08:05:32.235Z,992.95
2023-02-26T08:06:32.230Z,993.01
2023-02-26T08:07:32.225Z,993.04
2023-02-26T08:08:32.204Z,993.04
2023-02-26T08:09:32.159Z,993.10
2023-02-26T08:10:32.137Z,993.07
2023-02-26T08:11:32.137Z,993.09
2023-02-26T08:12:32.154Z,993.10
2023-02-26T08:13:32.120Z,993.13
2023-02-26T08:14:32.093Z,993.07
2023-02-26T08:15:32.131Z,993.11
2023-02-26T08:16:32.091Z,993.14
2023-02-26T08:17:32.084Z,993.19
2023-02-26T08:18:32.056Z,993.21
2023-02-26T08:19:32.032Z,993.24
2023-02-26T08:20:32.056Z,993.24
2023-02-26T08:21:31.979Z,993.24
2023-02-26T08:22:31.970Z,993.29
2023-02-26T08:23:31.992Z,993.27
2023-02-26T08:24:31.961Z,993.26
2023-02-26T08:25:31.932Z,993.26
2023-02-26T08:26:31.896Z,993.28
2023-02-26T08:27:31.899Z,993.26
2023-02-26T08:28:31.913Z,993.30
2023-02-26T08:29:32.007Z,993.32
2023-02-26T08:30:31.880Z,993.28
2023-02-26T08:31:31.977Z,993.30
2023-02-26T08:32:31.881Z,993.38
2023-02-26T08:33:31.807Z,993.35
2023-02-26T08:34:31.786Z,993.36
2023-02-26T08:35:31.792Z,993.48
2023-02-26T08:36:31.767Z,993.46
2023-02-26T08:37:31.732Z,993.47
2023-02-26T08:38:31.752Z,993.54
2023-02-26T08:39:31.724Z,993.50
2023-02-26T08:40:31.690Z,993.53
2023-02-26T08:41:31.719Z,993.56
2023-02-26T08:42:31.659Z,993.55
2023-02-26T08:43:31.655Z,993.59
2023-02-26T08:44:31.637Z,993.58
2023-02-26T08:45:31.640Z,993.56
2023-02-26T08:46:31.625Z,993.60
2023-02-26T08:47:32.066Z,993.61
2023-02-26T08:48:31.582Z,993.62
2023-02-26T08:49:31.611Z,993.66
2023-02-26T08:50:31.544Z,993.66
2023-02-26T08:51:31.539Z,993.68
2023-02-26T08:52:31.526Z,993.62
2023-02-26T08:53:31.475Z,993.66
2023-02-26T08:54:31.482Z,993.66
2023-02-26T08:55:31.464Z,993.66
2023-02-26T08:56:31.437Z,993.66
2023-02-26T08:57:31.435Z,993.71
2023-02-26T08:58:32.233Z,993.75
2023-02-26T08:59:31.404Z,993.75
2023-02-26T09:00:31.412Z,993.78
2023-02-26T09:01:31.484Z,993.85
2023-02-26T09:02:31.376Z,993.82
2023-02-26T09:03:31.344Z,993.85
2023-02-26T09:04:31.417Z,993.82
2023-02-26T09:05:31.313Z,993.88
2023-02-26T09:06:31.310Z,993.91
2023-02-26T09:07:31.274Z,993.93
2023-02-26T09:08:31.264Z,993.96
2023-02-26T09:09:31.268Z,994.00
2023-02-26T09:10:31.236Z,994.01
2023-02-26T09:11:31.215Z,994.01
2023-02-26T09:12:31.199Z,994.07
2023-02-26T09:13:31.202Z,994.06
2023-02-26T09:14:31.185Z,994.04
2023-02-26T09:15:31.169Z,994.09
2023-02-26T09:16:31.243Z,994.10
2023-02-26T09:17:31.162Z,994.12
2023-02-26T09:18:31.099Z,994.16
2023-02-26T09:19:31.085Z,994.12
2023-02-26T09:20:31.090Z,994.19
2023-02-26T09:21:31.062Z,994.18
2023-02-26T09:22:31.043Z,994.19
2023-02-26T09:23:31.035Z,994.23
2023-02-26T09:24:31.052Z,994.24
2023-02-26T09:25:31.009Z,994.22
2023-02-26T09:26:30.987Z,994.27
2023-02-26T09:27:30.972Z,994.30
2023-02-26T09:28:30.980Z,994.32
2023-02-26T09:29:30.950Z,994.30
2023-02-26T09:30:30.958Z,994.32
2023-02-26T09:31:31.301Z,994.38
2023-02-26T09:32:31.126Z,994.37
2023-02-26T09:33:30.918Z,994.35
2023-02-26T09:34:30.901Z,994.39
2023-02-26T09:35:30.848Z,994.35
2023-02-26T09:36:30.832Z,994.38
2023-02-26T09:37:30.814Z,994.44
2023-02-26T09:38:30.806Z,994.44
2023-02-26T09:39:30.790Z,994.49
2023-02-26T09:40:30.820Z,994.52
2023-02-26T09:41:30.771Z,994.52
2023-02-26T09:42:30.757Z,994.51
2023-02-26T09:43:30.788Z,994.51
2023-02-26T09:44:30.739Z,994.48
2023-02-26T09:45:30.801Z,994.54
2023-02-26T09:46:30.724Z,994.58
2023-02-26T09:47:30.664Z,994.60
2023-02-26T09:48:30.698Z,994.58
2023-02-26T09:49:30.780Z,994.62
2023-02-26T09:50:30.684Z,994.61
2023-02-26T09:51:30.617Z,994.68
2023-02-26T09:52:30.635Z,994.66
2023-02-26T09:53:30.634Z,994.70
2023-02-26T09:54:30.599Z,994.68
2023-02-26T09:55:30.564Z,994.70
2023-02-26T09:56:30.548Z,994.67
2023-02-26T09:57:30.525Z,994.71
2023-02-26T09:58:30.565Z,994.73
2023-02-26T09:59:30.486Z,994.76
2023-02-26T10:00:30.505Z,994.77
2023-02-26T10:01:30.550Z,994.78
2023-02-26T10:02:30.477Z,994.81
2023-02-26T10:03:30.458Z,994.82
2023-02-26T10:04:30.500Z,994.84
2023-02-26T10:05:30.463Z,994.86
2023-02-26T10:06:30.393Z,994.88
2023-02-26T10:07:30.390Z,994.85
2023-02-26T10:08:30.388Z,994.87
2023-02-26T10:09:30.385Z,994.88
2023-02-26T10:10:33.015Z,994.87
2023-02-26T10:11:30.343Z,994.92
2023-02-26T10:12:30.349Z,994.91
2023-02-26T10:13:30.306Z,994.94
2023-02-26T10:14:30.315Z,994.93
2023-02-26T10:15:30.260Z,994.92
2023-02-26T10:16:30.822Z,994.92
2023-02-26T10:17:30.230Z,994.86
2023-02-26T10:18:30.247Z,994.86
2023-02-26T10:19:30.240Z,994.93
2023-02-26T10:20:30.211Z,994.92
2023-02-26T10:21:30.214Z,994.94
2023-02-26T10:22:30.203Z,994.94
2023-02-26T10:23:30.347Z,994.97
2023-02-26T10:24:30.142Z,994.96
2023-02-26T10:25:30.133Z,994.98
2023-02-26T10:26:30.127Z,994.98
2023-02-26T10:27:30.096Z,995.00
2023-02-26T10:28:30.094Z,995.01
2023-02-26T10:29:30.044Z,995.05
2023-02-26T10:30:30.029Z,995.06
2023-02-26T10:31:30.149Z,995.05
2023-02-26T10:32:30.180Z,995.05
2023-02-26T10:33:30.005Z,995.05
2023-02-26T10:34:30.004Z,995.08
2023-02-26T10:35:29.950Z,995.08
2023-02-26T10:36:29.960Z,995.14
2023-02-26T10:37:30.192Z,995.14
2023-02-26T10:38:29.915Z,995.12
2023-02-26T10:39:30.080Z,995.11
2023-02-26T10:40:29.886Z,995.14
2023-02-26T10:41:29.859Z,995.16
2023-02-26T10:42:29.863Z,995.15
2023-02-26T10:43:29.860Z,995.17
2023-02-26T10:44:29.833Z,995.18
2023-02-26T10:45:29.818Z,995.19
2023-02-26T10:46:29.853Z,995.15
2023-02-26T10:47:29.805Z,995.18
2023-02-26T10:48:29.763Z,995.17
2023-02-26T10:49:29.791Z,995.17
2023-02-26T10:50:29.773Z,995.18
2023-02-26T10:51:29.718Z,995.17
2023-02-26T10:52:29.735Z,995.21
2023-02-26T10:53:29.719Z,995.16
2023-02-26T10:54:29.682Z,995.19
2023-02-26T10:55:29.668Z,995.19
2023-02-26T10:56:29.651Z,995.21
2023-02-26T10:57:29.647Z,995.24
2023-02-26T10:58:29.627Z,995.26
2023-02-26T10:59:29.588Z,995.24
2023-02-26T11:00:29.587Z,995.24
2023-02-26T11:01:29.845Z,995.25
2023-02-26T11:02:29.569Z,995.26
2023-02-26T11:03:29.533Z,995.24
2023-02-26T11:04:29.538Z,995.26
2023-02-26T11:05:29.531Z,995.26
2023-02-26T11:06:29.711Z,995.28
2023-02-26T11:07:32.019Z,995.28
2023-02-26T11:08:29.482Z,995.32
2023-02-26T11:09:29.478Z,995.28
2023-02-26T11:10:29.450Z,995.26
2023-02-26T11:11:29.472Z,995.30
2023-02-26T11:12:29.404Z,995.33
2023-02-26T11:13:29.431Z,995.30
2023-02-26T11:14:30.867Z,995.32
2023-02-26T11:15:29.376Z,995.37
2023-02-26T11:16:29.406Z,995.33
2023-02-26T11:17:29.367Z,995.34
2023-02-26T11:18:29.364Z,995.27
2023-02-26T11:19:29.324Z,995.33
2023-02-26T11:20:29.297Z,995.33
2023-02-26T11:21:29.362Z,995.34
2023-02-26T11:22:29.270Z,995.33
2023-02-26T11:23:29.273Z,995.32
2023-02-26T11:24:29.251Z,995.32
2023-02-26T11:25:29.253Z,995.33
2023-02-26T11:26:29.227Z,995.30
2023-02-26T11:27:29.227Z,995.33
2023-02-26T11:28:29.252Z,995.31
2023-02-26T11:29:29.186Z,995.30
2023-02-26T11:30:29.225Z,995.25
2023-02-26T11:31:29.825Z,995.32
2023-02-26T11:32:29.171Z,995.30
2023-02-26T11:33:29.166Z,995.30
2023-02-26T11:34:29.134Z,995.26
2023-02-26T11:35:29.112Z,995.24
2023-02-26T11:36:29.079Z,995.26
2023-02-26T11:37:29.075Z,995.23
2023-02-26T11:38:29.148Z,995.33
2023-02-26T11:39:29.044Z,995.26
2023-02-26T11:40:29.032Z,995.28
2023-02-26T11:41:29.231Z,995.26
2023-02-26T11:42:28.990Z,995.29
2023-02-26T11:43:28.995Z,995.23
2023-02-26T11:44:28.975Z,995.27
2023-02-26T11:45:28.955Z,995.30
2023-02-26T11:46:28.999Z,995.24
2023-02-26T11:47:28.934Z,995.29
2023-02-26T11:48:28.939Z,995.28
2023-02-26T11:49:28.929Z,995.31
2023-02-26T11:50:28.897Z,995.34
2023-02-26T11:51:29.188Z,995.27
2023-02-26T11:52:28.920Z,995.28
2023-02-26T11:53:28.913Z,995.34
2023-02-26T11:54:28.864Z,995.30
2023-02-26T11:55:28.820Z,995.30
2023-02-26T11:56:28.811Z,995.34
2023-02-26T11:57:28.815Z,995.33
2023-02-26T11:58:28.812Z,995.37
2023-02-26T11:59:28.776Z,995.36
2023-02-26T12:00:28.757Z,995.36
2023-02-26T12:01:28.994Z,995.33
2023-02-26T12:02:28.816Z,995.31
2023-02-26T12:03:28.885Z,995.27
2023-02-26T12:04:28.724Z,995.31
2023-02-26T12:05:28.749Z,995.31
2023-02-26T12:06:28.682Z,995.38
2023-02-26T12:07:28.660Z,995.34
2023-02-26T12:08:28.641Z,995.34
2023-02-26T12:09:28.639Z,995.26
2023-02-26T12:10:28.653Z,995.34
2023-02-26T12:11:29.138Z,995.36
2023-02-26T12:12:28.835Z,995.33
2023-02-26T12:13:28.598Z,995.30
2023-02-26T12:14:28.662Z,995.31
2023-02-26T12:15:28.612Z,995.35
2023-02-26T12:16:28.587Z,995.36
2023-02-26T12:17:28.534Z,995.30
2023-02-26T12:18:28.550Z,995.31
2023-02-26T12:19:28.510Z,995.26
2023-02-26T12:20:28.709Z,995.29
2023-02-26T12:21:29.019Z,995.31
2023-02-26T12:22:28.531Z,995.30
2023-02-26T12:23:28.511Z,995.29
2023-02-26T12:24:28.444Z,995.34
2023-02-26T12:25:28.435Z,995.33
2023-02-26T12:26:28.445Z,995.29
2023-02-26T12:27:28.389Z,995.27
2023-02-26T12:28:28.380Z,995.34